createdAt,value
2017-08-08T00:02:26.314Z,14.80
2017-08-08T00:04:53.917Z,14.80
2017-08-08T00:07:21.448Z,14.80
2017-08-08T00:09:48.983Z,14.80
2017-08-08T00:12:16.547Z,14.90
2017-08-08T00:14:44.101Z,14.90
2017-08-08T00:17:11.664Z,14.90
2017-08-08T00:19:39.195Z,15.00
2017-08-08T00:22:06.754Z,15.10
2017-08-08T00:24:34.310Z,15.20
2017-08-08T00:27:02.131Z,15.20
2017-08-08T00:29:29.681Z,15.30
2017-08-08T00:31:57.229Z,15.30
2017-08-08T00:34:24.787Z,15.50
2017-08-08T00:36:52.315Z,15.60
2017-08-08T00:39:19.873Z,15.60
2017-08-08T00:41:47.427Z,15.70
2017-08-08T00:44:14.977Z,15.70
2017-08-08T00:46:42.537Z,15.70
2017-08-08T00:49:10.083Z,15.70
2017-08-08T00:51:37.648Z,15.60
2017-08-08T00:54:05.178Z,15.70
2017-08-08T00:56:32.729Z,15.70
2017-08-08T00:59:00.264Z,15.60
2017-08-08T01:01:27.821Z,15.60
2017-08-08T01:03:55.356Z,15.60
2017-08-08T01:06:22.910Z,15.60
2017-08-08T01:08:51.242Z,15.30
2017-08-08T01:11:18.772Z,15.30
2017-08-08T01:13:46.309Z,15.30
2017-08-08T01:16:13.876Z,15.30
2017-08-08T01:18:41.436Z,15.30
2017-08-08T01:21:08.987Z,15.20
2017-08-08T01:23:36.526Z,15.30
2017-08-08T01:26:04.085Z,15.30
2017-08-08T01:28:31.642Z,15.30
2017-08-08T01:30:59.201Z,15.30
2017-08-08T01:33:26.739Z,15.40
2017-08-08T01:35:54.299Z,15.50
2017-08-08T01:38:21.866Z,15.70
2017-08-08T01:40:49.401Z,15.70
2017-08-08T01:43:17.670Z,15.70
2017-08-08T01:45:45.207Z,15.80
2017-08-08T01:48:12.771Z,15.90
2017-08-08T01:50:40.316Z,16.00
2017-08-08T01:53:07.866Z,16.00
2017-08-08T01:55:35.430Z,16.10
2017-08-08T01:58:02.988Z,16.00
2017-08-08T02:00:30.564Z,16.10
2017-08-08T02:02:58.115Z,16.10
2017-08-08T02:05:25.688Z,16.20
2017-08-08T02:07:53.226Z,16.30
2017-08-08T02:10:20.761Z,16.30
2017-08-08T02:12:48.306Z,16.40
2017-08-08T02:15:15.859Z,16.40
2017-08-08T02:17:43.414Z,16.40
2017-08-08T02:20:10.981Z,16.40
2017-08-08T02:22:38.496Z,16.40
2017-08-08T02:25:06.047Z,16.40
2017-08-08T02:27:33.615Z,16.40
2017-08-08T02:30:01.175Z,16.40
2017-08-08T02:32:28.727Z,16.40
2017-08-08T02:34:56.257Z,16.50
2017-08-08T02:37:23.793Z,16.50
2017-08-08T02:39:51.325Z,16.60
2017-08-08T02:42:18.869Z,16.70
2017-08-08T02:44:46.404Z,16.80
2017-08-08T02:47:13.954Z,16.90
2017-08-08T02:49:41.511Z,17.00
2017-08-08T02:52:09.033Z,17.00
2017-08-08T02:54:36.610Z,17.00
2017-08-08T02:57:04.146Z,17.00
2017-08-08T02:59:31.693Z,17.00
2017-08-08T03:01:59.238Z,17.00
2017-08-08T03:04:26.804Z,17.00
2017-08-08T03:06:54.351Z,17.00
2017-08-08T03:09:21.865Z,17.00
2017-08-08T03:11:49.412Z,17.00
2017-08-08T03:14:16.941Z,17.00
2017-08-08T03:16:44.489Z,16.90
2017-08-08T03:19:12.031Z,16.80
2017-08-08T03:21:39.584Z,16.90
2017-08-08T03:24:07.132Z,16.70
2017-08-08T03:26:34.677Z,16.60
2017-08-08T03:29:02.215Z,16.60
2017-08-08T03:31:29.776Z,16.50
2017-08-08T03:33:57.336Z,16.40
2017-08-08T03:36:24.906Z,16.30
2017-08-08T03:38:52.448Z,16.20
2017-08-08T03:41:20.024Z,16.20
2017-08-08T03:43:47.572Z,16.20
2017-08-08T03:46:15.138Z,16.10
2017-08-08T03:48:42.693Z,16.20
2017-08-08T03:51:10.679Z,16.20
2017-08-08T03:53:38.214Z,16.20
2017-08-08T03:56:05.752Z,16.20
2017-08-08T03:58:33.293Z,16.20
2017-08-08T04:01:00.843Z,16.20
2017-08-08T04:03:28.435Z,16.20
2017-08-08T04:05:55.991Z,16.20
2017-08-08T04:08:23.516Z,16.30
2017-08-08T04:10:51.054Z,16.10
2017-08-08T04:13:18.583Z,16.10
2017-08-08T04:15:46.150Z,16.10
2017-08-08T04:18:13.668Z,16.00
2017-08-08T04:20:41.220Z,16.00
2017-08-08T04:23:09.603Z,16.00
2017-08-08T04:25:37.141Z,15.90
2017-08-08T04:28:04.692Z,15.80
2017-08-08T04:30:32.224Z,15.70
2017-08-08T04:32:59.773Z,15.60
2017-08-08T04:35:27.293Z,15.70
2017-08-08T04:37:54.879Z,15.80
2017-08-08T04:40:22.411Z,15.90
2017-08-08T04:42:49.960Z,16.00
2017-08-08T04:45:17.517Z,16.00
2017-08-08T04:47:45.058Z,16.00
2017-08-08T04:50:12.596Z,16.10
2017-08-08T04:52:40.137Z,16.10
2017-08-08T04:55:08.136Z,16.10
2017-08-08T04:57:35.677Z,16.20
2017-08-08T05:00:03.222Z,16.20
2017-08-08T05:02:30.773Z,16.30
2017-08-08T05:05:03.867Z,16.30
2017-08-08T05:07:31.446Z,16.30
2017-08-08T05:09:58.984Z,16.20
2017-08-08T05:12:26.910Z,16.10
2017-08-08T05:14:54.438Z,16.10
2017-08-08T05:17:21.995Z,16.10
2017-08-08T05:19:49.540Z,16.00
2017-08-08T05:22:17.068Z,16.00
2017-08-08T05:24:45.018Z,16.10
2017-08-08T05:27:12.573Z,16.10
2017-08-08T05:29:40.095Z,16.20
2017-08-08T05:32:07.713Z,16.40
2017-08-08T05:34:35.252Z,16.50
2017-08-08T05:37:02.806Z,16.70
2017-08-08T05:39:30.338Z,16.90
2017-08-08T05:41:57.883Z,17.10
2017-08-08T05:44:25.446Z,17.30
2017-08-08T05:46:52.997Z,17.70
2017-08-08T05:49:20.579Z,18.00
2017-08-08T05:51:48.118Z,18.30
2017-08-08T05:54:15.679Z,18.40
2017-08-08T05:56:43.226Z,18.40
2017-08-08T05:59:10.780Z,18.30
2017-08-08T06:01:38.341Z,18.40
2017-08-08T06:04:06.622Z,18.80
2017-08-08T06:06:34.163Z,18.80
2017-08-08T06:09:01.692Z,18.90
2017-08-08T06:11:29.249Z,19.00
2017-08-08T06:13:56.790Z,19.10
2017-08-08T06:16:24.600Z,19.30
2017-08-08T06:18:52.145Z,19.50
2017-08-08T06:21:19.686Z,19.60
2017-08-08T06:23:47.238Z,19.50
2017-08-08T06:26:14.769Z,19.60
2017-08-08T06:28:42.323Z,19.50
2017-08-08T06:31:09.868Z,19.40
2017-08-08T06:33:38.516Z,19.40
2017-08-08T06:36:06.068Z,19.40
2017-08-08T06:38:33.593Z,19.50
2017-08-08T06:41:01.146Z,19.50
2017-08-08T06:43:28.694Z,19.50
2017-08-08T06:45:56.357Z,19.40
2017-08-08T06:48:23.933Z,19.50
2017-08-08T06:50:51.485Z,19.80
2017-08-08T06:53:19.039Z,20.20
2017-08-08T06:55:47.534Z,20.20
2017-08-08T06:58:15.543Z,20.30
2017-08-08T07:00:43.077Z,20.30
2017-08-08T07:03:10.613Z,20.20
2017-08-08T07:05:38.176Z,20.10
2017-08-08T07:08:05.718Z,20.00
2017-08-08T07:10:33.633Z,20.00
2017-08-08T07:13:01.168Z,20.10
2017-08-08T07:15:28.789Z,20.20
2017-08-08T07:17:56.414Z,20.30
2017-08-08T07:20:23.965Z,20.50
2017-08-08T07:22:51.525Z,20.70
2017-08-08T07:25:19.077Z,20.80
2017-08-08T07:27:47.068Z,20.90
2017-08-08T07:30:14.613Z,20.80
2017-08-08T07:32:42.196Z,20.80
2017-08-08T07:35:09.754Z,20.80
2017-08-08T07:37:37.317Z,20.70
2017-08-08T07:40:04.876Z,20.60
2017-08-08T07:42:32.410Z,20.60
2017-08-08T07:44:59.987Z,20.40
2017-08-08T07:47:27.521Z,20.30
2017-08-08T07:49:55.098Z,20.00
2017-08-08T07:52:22.642Z,19.70
2017-08-08T07:54:50.165Z,19.50
2017-08-08T07:57:17.731Z,19.30
2017-08-08T07:59:45.282Z,19.10
2017-08-08T08:02:13.198Z,19.00
2017-08-08T08:04:40.763Z,18.80
2017-08-08T08:07:08.322Z,18.70
2017-08-08T08:09:35.886Z,18.50
2017-08-08T08:12:03.440Z,18.30
2017-08-08T08:14:30.994Z,18.30
2017-08-08T08:16:58.542Z,18.30
2017-08-08T08:19:26.679Z,18.10
2017-08-08T08:21:54.224Z,18.10
2017-08-08T08:24:21.777Z,17.90
2017-08-08T08:26:49.341Z,17.70
2017-08-08T08:29:17.676Z,17.40
2017-08-08T08:31:45.240Z,17.30
2017-08-08T08:34:12.800Z,17.30
2017-08-08T08:36:40.357Z,17.10
2017-08-08T08:39:07.934Z,16.90
2017-08-08T08:41:35.479Z,17.90
2017-08-08T08:44:03.049Z,16.70
2017-08-08T08:46:30.593Z,16.60
2017-08-08T08:48:58.154Z,16.50
2017-08-08T08:51:25.714Z,16.50
2017-08-08T08:53:53.598Z,16.50
2017-08-08T08:56:21.165Z,16.40
2017-08-08T08:58:48.713Z,16.40
2017-08-08T09:01:16.289Z,16.30
2017-08-08T09:03:43.889Z,16.30
2017-08-08T09:06:11.459Z,16.30
2017-08-08T09:08:39.000Z,16.30
2017-08-08T09:11:06.557Z,16.30
2017-08-08T09:13:34.117Z,16.20
2017-08-08T09:16:01.665Z,16.20
2017-08-08T09:18:29.242Z,16.10
2017-08-08T09:20:56.789Z,16.10
2017-08-08T09:23:24.356Z,16.10
2017-08-08T09:25:51.911Z,16.00
2017-08-08T09:28:19.743Z,16.00
2017-08-08T09:30:47.285Z,16.00
2017-08-08T09:33:14.864Z,16.00
2017-08-08T09:35:42.447Z,16.00
2017-08-08T09:38:10.776Z,16.00
2017-08-08T09:40:38.356Z,16.10
2017-08-08T09:43:05.913Z,16.10
2017-08-08T09:45:33.756Z,16.20
2017-08-08T09:48:01.312Z,16.20
2017-08-08T09:50:28.981Z,16.30
2017-08-08T09:52:56.587Z,16.30
2017-08-08T09:55:24.154Z,16.20
2017-08-08T09:57:52.505Z,16.20
2017-08-08T10:00:20.055Z,16.20
2017-08-08T10:02:47.898Z,16.10
2017-08-08T10:05:15.449Z,16.20
2017-08-08T10:07:45.505Z,16.10
2017-08-08T10:10:13.209Z,16.10
2017-08-08T10:12:40.777Z,16.30
2017-08-08T10:15:08.350Z,16.30
2017-08-08T10:17:35.888Z,16.40
2017-08-08T10:20:03.753Z,16.50
2017-08-08T10:22:31.296Z,16.60
2017-08-08T10:24:59.623Z,16.80
2017-08-08T10:27:27.193Z,16.70
2017-08-08T10:29:54.735Z,16.80
2017-08-08T10:32:22.295Z,16.80
2017-08-08T10:34:49.845Z,16.70
2017-08-08T10:37:17.422Z,16.60
2017-08-08T10:39:45.028Z,16.50
2017-08-08T10:42:12.655Z,16.50
2017-08-08T10:44:40.295Z,16.60
2017-08-08T10:47:07.901Z,16.60
2017-08-08T10:49:35.544Z,16.70
2017-08-08T10:52:03.092Z,16.80
2017-08-08T10:54:30.759Z,17.00
2017-08-08T10:56:58.598Z,17.10
2017-08-08T10:59:26.162Z,17.30
2017-08-08T11:01:53.722Z,17.40
2017-08-08T11:04:21.302Z,17.50
2017-08-08T11:06:48.856Z,17.60
2017-08-08T11:09:16.678Z,17.70
2017-08-08T11:11:44.227Z,17.80
2017-08-08T11:14:11.790Z,17.90
2017-08-08T11:16:39.370Z,17.90
2017-08-08T11:19:06.930Z,17.90
2017-08-08T11:21:34.481Z,18.00
2017-08-08T11:24:02.032Z,18.10
2017-08-08T11:26:29.863Z,18.10
2017-08-08T11:28:58.231Z,18.00
2017-08-08T11:31:25.785Z,18.00
2017-08-08T11:33:53.361Z,18.10
2017-08-08T11:36:20.952Z,18.00
2017-08-08T11:38:48.587Z,18.00
2017-08-08T11:41:16.149Z,18.00
2017-08-08T11:43:43.934Z,18.00
2017-08-08T11:46:12.234Z,17.90
2017-08-08T11:48:39.798Z,17.90
2017-08-08T11:51:07.385Z,17.80
2017-08-08T11:53:34.948Z,17.80
2017-08-08T11:56:02.504Z,17.80
2017-08-08T11:58:30.049Z,17.70
2017-08-08T12:00:57.616Z,17.70
2017-08-08T12:03:25.175Z,17.60
2017-08-08T12:05:52.727Z,17.50
2017-08-08T12:08:20.307Z,17.40
2017-08-08T12:10:47.845Z,17.40
2017-08-08T12:13:15.415Z,17.40
2017-08-08T12:15:42.961Z,17.30
2017-08-08T12:18:10.536Z,17.40
2017-08-08T12:20:38.096Z,17.30
2017-08-08T12:23:05.629Z,17.30
2017-08-08T12:25:33.199Z,17.40
2017-08-08T12:28:00.749Z,17.30
2017-08-08T12:30:28.316Z,17.40
2017-08-08T12:32:55.883Z,17.60
2017-08-08T12:35:23.444Z,17.80
2017-08-08T12:37:50.995Z,18.10
2017-08-08T12:40:18.553Z,18.30
2017-08-08T12:42:46.116Z,18.40
2017-08-08T12:45:13.657Z,18.60
2017-08-08T12:47:41.224Z,18.60
2017-08-08T12:50:08.798Z,18.40
2017-08-08T12:52:36.358Z,18.30
2017-08-08T12:55:03.929Z,18.10
2017-08-08T12:57:31.479Z,18.00
2017-08-08T12:59:59.072Z,17.90
2017-08-08T13:02:26.648Z,17.80
2017-08-08T13:04:54.996Z,17.60
2017-08-08T13:07:22.569Z,17.60
2017-08-08T13:09:50.431Z,17.60
2017-08-08T13:12:17.998Z,17.50
2017-08-08T13:14:45.563Z,17.50
2017-08-08T13:17:13.945Z,17.40
2017-08-08T13:19:41.495Z,17.40
2017-08-08T13:22:09.856Z,15.70
2017-08-08T13:24:37.445Z,17.30
2017-08-08T13:27:05.777Z,17.50
2017-08-08T13:29:33.337Z,17.50
2017-08-08T13:32:00.918Z,17.60
2017-08-08T13:34:28.494Z,17.70
2017-08-08T13:36:56.045Z,17.80
2017-08-08T13:39:23.606Z,18.00
2017-08-08T13:41:51.163Z,18.10
2017-08-08T13:44:18.758Z,18.20
2017-08-08T13:46:46.326Z,18.30
2017-08-08T13:49:13.905Z,18.50
2017-08-08T13:51:41.460Z,18.70
2017-08-08T13:54:08.998Z,18.90
2017-08-08T13:56:36.600Z,19.10
2017-08-08T13:59:04.144Z,19.10
2017-08-08T14:01:31.987Z,19.40
2017-08-08T14:03:59.515Z,20.30
2017-08-08T14:06:27.089Z,21.30
2017-08-08T14:08:55.398Z,21.60
2017-08-08T14:11:22.951Z,21.60
2017-08-08T14:13:50.525Z,21.30
2017-08-08T14:16:18.096Z,21.00
2017-08-08T14:18:45.644Z,20.70
2017-08-08T14:21:13.210Z,21.00
2017-08-08T14:23:40.771Z,21.30
2017-08-08T14:26:08.338Z,21.40
2017-08-08T14:28:35.943Z,22.20
2017-08-08T14:31:03.594Z,23.00
2017-08-08T14:33:31.367Z,23.70
2017-08-08T14:35:58.938Z,23.20
2017-08-08T14:38:26.896Z,22.40
2017-08-08T14:40:55.211Z,21.40
2017-08-08T14:43:22.839Z,21.30
2017-08-08T14:45:50.400Z,22.30
2017-08-08T14:48:17.963Z,23.00
2017-08-08T14:50:45.533Z,23.10
2017-08-08T14:53:13.126Z,23.80
2017-08-08T14:55:40.696Z,24.80
2017-08-08T14:58:08.266Z,25.20
2017-08-08T15:00:35.890Z,25.20
2017-08-08T15:03:03.470Z,25.20
2017-08-08T15:05:31.014Z,24.90
2017-08-08T15:07:58.597Z,23.70
2017-08-08T15:10:26.161Z,22.90
2017-08-08T15:12:53.706Z,22.00
2017-08-08T15:15:21.259Z,21.30
2017-08-08T15:17:48.826Z,20.90
2017-08-08T15:20:16.381Z,20.50
2017-08-08T15:22:43.965Z,20.70
2017-08-08T15:25:11.548Z,20.80
2017-08-08T15:27:39.427Z,20.70
2017-08-08T15:30:08.179Z,20.70
2017-08-08T15:32:36.015Z,20.70
2017-08-08T15:35:03.604Z,20.50
2017-08-08T15:37:31.180Z,20.60
2017-08-08T15:39:58.745Z,20.50
2017-08-08T15:42:26.318Z,20.60
2017-08-08T15:44:53.910Z,20.70
2017-08-08T15:47:21.464Z,21.00
2017-08-08T15:49:49.032Z,21.70
2017-08-08T15:52:16.599Z,22.30
2017-08-08T15:54:44.469Z,23.00
2017-08-08T15:57:12.088Z,23.20
2017-08-08T15:59:39.670Z,22.90
2017-08-08T16:02:07.236Z,22.10
2017-08-08T16:04:34.808Z,21.60
2017-08-08T16:07:02.358Z,21.20
2017-08-08T16:09:29.922Z,20.80
2017-08-08T16:11:57.751Z,20.50
2017-08-08T16:14:25.305Z,20.20
2017-08-08T16:16:52.848Z,20.10
2017-08-08T16:19:21.204Z,20.30
2017-08-08T16:21:48.739Z,20.20
2017-08-08T16:24:16.339Z,20.20
2017-08-08T16:26:43.918Z,20.20
2017-08-08T16:29:11.750Z,20.10
2017-08-08T16:31:39.315Z,19.90
2017-08-08T16:34:06.893Z,20.10
2017-08-08T16:36:35.216Z,20.70
2017-08-08T16:39:02.783Z,20.70
2017-08-08T16:41:30.366Z,20.60
2017-08-08T16:43:57.914Z,20.30
2017-08-08T16:46:25.468Z,20.10
2017-08-08T16:48:53.054Z,19.90
2017-08-08T16:51:20.630Z,19.60
2017-08-08T16:53:48.230Z,19.60
2017-08-08T16:56:15.768Z,19.60
2017-08-08T16:58:43.370Z,20.20
2017-08-08T17:01:10.927Z,20.90
2017-08-08T17:03:38.734Z,21.70
2017-08-08T17:06:06.298Z,22.30
2017-08-08T17:08:33.863Z,22.80
2017-08-08T17:11:01.461Z,23.20
2017-08-08T17:13:29.043Z,23.30
2017-08-08T17:15:56.594Z,23.40
2017-08-08T17:18:24.142Z,23.00
2017-08-08T17:20:51.959Z,22.40
2017-08-08T17:23:19.512Z,21.50
2017-08-08T17:25:47.831Z,20.50
2017-08-08T17:28:15.391Z,20.50
2017-08-08T17:30:42.952Z,20.00
2017-08-08T17:33:10.522Z,19.60
2017-08-08T17:35:38.086Z,19.40
2017-08-08T17:38:06.578Z,19.10
2017-08-08T17:40:34.151Z,18.90
2017-08-08T17:43:01.692Z,18.90
2017-08-08T17:45:29.296Z,18.90
2017-08-08T17:47:57.632Z,18.90
2017-08-08T17:50:25.196Z,18.80
2017-08-08T17:52:52.754Z,18.80
2017-08-08T17:55:20.343Z,18.80
2017-08-08T17:57:48.988Z,18.70
2017-08-08T18:00:16.534Z,18.70
2017-08-08T18:02:44.074Z,18.70
2017-08-08T18:05:11.667Z,18.70
2017-08-08T18:07:39.237Z,18.50
2017-08-08T18:10:06.810Z,18.40
2017-08-08T18:12:34.776Z,18.20
2017-08-08T18:15:02.337Z,18.10
2017-08-08T18:17:29.892Z,17.10
2017-08-08T18:19:57.459Z,18.00
2017-08-08T18:22:25.013Z,17.90
2017-08-08T18:24:52.596Z,18.00
2017-08-08T18:27:20.146Z,17.80
2017-08-08T18:29:48.511Z,17.70
2017-08-08T18:32:16.074Z,17.70
2017-08-08T18:34:43.627Z,17.60
2017-08-08T18:37:11.224Z,17.60
2017-08-08T18:39:38.781Z,17.60
2017-08-08T18:42:06.361Z,17.60
2017-08-08T18:44:33.941Z,17.50
2017-08-08T18:47:01.773Z,17.50
2017-08-08T18:49:30.041Z,17.40
2017-08-08T18:51:59.243Z,17.40
2017-08-08T18:54:26.881Z,17.30
2017-08-08T18:56:54.489Z,17.20
2017-08-08T18:59:22.092Z,17.10
2017-08-08T19:01:49.648Z,17.10
2017-08-08T19:04:17.494Z,17.00
2017-08-08T19:06:45.032Z,17.00
2017-08-08T19:09:12.605Z,16.80
2017-08-08T19:11:40.164Z,16.70
2017-08-08T19:14:07.717Z,16.60
2017-08-08T19:16:35.325Z,16.50
2017-08-08T19:19:02.982Z,16.40
2017-08-08T19:21:30.632Z,16.40
2017-08-08T19:23:58.298Z,16.40
2017-08-08T19:26:25.865Z,16.30
2017-08-08T19:28:53.537Z,16.20
2017-08-08T19:31:21.122Z,16.20
2017-08-08T19:33:48.764Z,16.20
2017-08-08T19:36:16.398Z,16.10
2017-08-08T19:38:44.080Z,16.00
2017-08-08T19:41:12.057Z,16.10
2017-08-08T19:43:39.781Z,16.00
2017-08-08T19:46:07.642Z,15.90
2017-08-08T19:48:35.288Z,15.80
2017-08-08T19:51:02.926Z,15.80
2017-08-08T19:53:30.612Z,15.80
2017-08-08T19:55:58.258Z,15.80
2017-08-08T19:58:25.860Z,15.80
2017-08-08T20:00:53.437Z,15.70
2017-08-08T20:03:21.398Z,15.70
2017-08-08T20:05:48.967Z,15.70
2017-08-08T20:08:16.484Z,15.70
2017-08-08T20:10:44.089Z,15.70
2017-08-08T20:13:11.710Z,15.70
2017-08-08T20:15:39.744Z,15.80
2017-08-08T20:18:07.315Z,15.80
2017-08-08T20:20:34.907Z,15.80
2017-08-08T20:23:02.477Z,15.80
2017-08-08T20:25:30.032Z,15.80
2017-08-08T20:27:57.838Z,15.80
2017-08-08T20:30:26.744Z,15.80
2017-08-08T20:32:54.300Z,15.80
2017-08-08T20:35:21.854Z,15.80
2017-08-08T20:37:49.414Z,15.80
2017-08-08T20:40:16.975Z,15.70
2017-08-08T20:42:44.532Z,15.60
2017-08-08T20:45:12.464Z,15.60
2017-08-08T20:47:40.029Z,15.60
2017-08-08T20:50:07.569Z,15.60
2017-08-08T20:52:35.146Z,15.50
2017-08-08T20:55:02.689Z,15.60
2017-08-08T20:57:30.248Z,15.60
2017-08-08T20:59:57.789Z,15.60
2017-08-08T21:02:25.685Z,15.60
2017-08-08T21:04:53.269Z,15.70
2017-08-08T21:07:20.811Z,15.60
2017-08-08T21:09:48.381Z,15.70
2017-08-08T21:12:15.937Z,15.60
2017-08-08T21:14:43.501Z,15.50
2017-08-08T21:17:11.062Z,15.50
2017-08-08T21:19:39.371Z,15.40
2017-08-08T21:22:06.940Z,15.40
2017-08-08T21:24:34.481Z,15.30
2017-08-08T21:27:02.808Z,15.20
2017-08-08T21:29:30.355Z,15.30
2017-08-08T21:31:57.916Z,15.30
2017-08-08T21:34:25.477Z,15.30
2017-08-08T21:36:53.018Z,15.20
2017-08-08T21:39:20.600Z,15.20
2017-08-08T21:41:48.178Z,15.20
2017-08-08T21:44:16.138Z,15.20
2017-08-08T21:46:43.670Z,15.10
2017-08-08T21:49:11.205Z,15.10
2017-08-08T21:51:38.826Z,15.10
2017-08-08T21:54:06.377Z,15.10
2017-08-08T21:56:35.554Z,15.00
2017-08-08T21:59:03.102Z,15.00
2017-08-08T22:01:30.668Z,15.10
2017-08-08T22:03:58.232Z,15.10
2017-08-08T22:06:25.789Z,15.00
2017-08-08T22:08:53.635Z,15.00
2017-08-08T22:11:21.173Z,15.00
2017-08-08T22:13:49.393Z,15.10
2017-08-08T22:16:16.967Z,15.10
2017-08-08T22:18:44.533Z,15.00
2017-08-08T22:21:12.135Z,15.00
2017-08-08T22:23:39.686Z,14.90
2017-08-08T22:26:07.253Z,14.90
2017-08-08T22:28:34.794Z,14.80
2017-08-08T22:31:02.364Z,14.80
2017-08-08T22:33:29.967Z,14.70
2017-08-08T22:35:57.809Z,14.70
2017-08-08T22:38:25.363Z,14.60
2017-08-08T22:40:52.895Z,14.60
2017-08-08T22:43:20.466Z,14.60
2017-08-08T22:45:48.781Z,14.50
2017-08-08T22:48:16.753Z,14.50
2017-08-08T22:50:44.289Z,14.50
2017-08-08T22:53:12.106Z,14.50
2017-08-08T22:55:39.661Z,14.40
2017-08-08T22:58:07.192Z,14.40
2017-08-08T23:00:34.752Z,14.40
2017-08-08T23:03:02.310Z,14.30
2017-08-08T23:05:29.886Z,14.20
2017-08-08T23:07:57.433Z,14.20
2017-08-08T23:10:25.329Z,14.20
2017-08-08T23:12:52.877Z,14.10
2017-08-08T23:15:20.467Z,14.10
2017-08-08T23:17:48.812Z,14.10
2017-08-08T23:20:16.353Z,14.00
2017-08-08T23:22:43.888Z,14.00
2017-08-08T23:25:11.430Z,13.90
2017-08-08T23:27:39.291Z,13.90
2017-08-08T23:30:06.857Z,13.90
2017-08-08T23:32:35.151Z,13.90
2017-08-08T23:35:02.708Z,13.80
2017-08-08T23:37:36.000Z,13.80
2017-08-08T23:40:03.810Z,13.70
2017-08-08T23:42:31.431Z,13.70
2017-08-08T23:44:59.005Z,13.70
2017-08-08T23:47:26.575Z,13.70
2017-08-08T23:49:54.126Z,13.70
2017-08-08T23:52:21.702Z,13.70
2017-08-08T23:54:49.228Z,13.70
2017-08-08T23:57:16.782Z,13.70
2017-08-08T23:59:44.342Z,13.70
